Time,TemperatureF,DewpointF,PressureIn,WindDirection,WindDirectionDegrees,WindSpeedMPH,WindSpeedGustMPH,Humidity,HourlyPrecipIn,Conditions,Clouds,dailyrainin,SolarRadiationWatts/m^2,SoftwareType,DateUTC
2013-07-08 00:02:00,65.0,64.0,-100.00,SW,215,0.0,0.0,97,0.00,,,0.00,0.000000,,2013-07-08 04:02:00,
2013-07-08 00:33:00,65.0,64.0,-100.00,SW,229,1.0,4.0,97,0.00,,,0.00,0.000000,,2013-07-08 04:33:00,
2013-07-08 00:42:00,65.0,64.0,-100.00,SW,229,1.0,4.0,97,0.00,,,0.00,0.000000,,2013-07-08 04:42:00,
2013-07-08 00:53:00,65.0,64.0,-100.00,SW,229,1.0,4.0,97,0.00,,,0.00,0.000000,,2013-07-08 04:53:00,
2013-07-08 01:01:00,65.0,64.0,-100.00,SW,229,1.0,4.0,97,0.00,,,0.00,0.000000,,2013-07-08 05:01:00,
2013-07-08 01:34:00,65.0,64.0,-100.00,North,2,0.0,2.0,97,0.00,,,0.00,0.000000,,2013-07-08 05:34:00,
2013-07-08 01:43:00,65.0,64.0,-100.00,North,2,0.0,2.0,97,0.00,,,0.00,0.000000,,2013-07-08 05:43:00,
2013-07-08 01:53:00,65.0,64.0,-100.00,North,2,0.0,2.0,97,0.00,,,0.00,0.000000,,2013-07-08 05:53:00,
2013-07-08 02:01:00,65.0,64.0,-100.00,North,2,0.0,2.0,97,0.00,,,0.00,0.000000,,2013-07-08 06:01:00,
2013-07-08 02:34:00,64.0,63.0,-100.00,SW,236,0.0,0.0,98,0.00,,,0.00,0.000000,,2013-07-08 06:34:00,
2013-07-08 02:43:00,64.0,63.0,-100.00,SW,236,0.0,0.0,98,0.00,,,0.00,0.000000,,2013-07-08 06:43:00,
2013-07-08 02:53:00,64.0,63.0,-100.00,SW,236,0.0,0.0,98,0.00,,,0.00,0.000000,,2013-07-08 06:53:00,
2013-07-08 03:02:00,64.0,63.0,-100.00,SW,236,0.0,0.0,98,0.00,,,0.00,0.000000,,2013-07-08 07:02:00,
2013-07-08 03:34:00,62.0,62.0,-100.00,WSW,256,0.0,0.0,99,0.00,,,0.00,0.000000,,2013-07-08 07:34:00,
2013-07-08 03:44:00,62.0,62.0,-100.00,WSW,256,0.0,0.0,99,0.00,,,0.00,0.000000,,2013-07-08 07:44:00,
2013-07-08 03:53:00,62.0,62.0,-100.00,WSW,256,0.0,0.0,99,0.00,,,0.00,0.000000,,2013-07-08 07:53:00,
2013-07-08 04:02:00,62.0,62.0,-100.00,WSW,256,0.0,0.0,99,0.00,,,0.00,0.000000,,2013-07-08 08:02:00,
2013-07-08 04:34:00,62.0,62.0,-100.00,South,189,0.0,0.0,99,0.00,,,0.00,0.000000,,2013-07-08 08:34:00,
2013-07-08 04:42:00,62.0,62.0,-100.00,South,189,0.0,0.0,99,0.00,,,0.00,0.000000,,2013-07-08 08:42:00,
2013-07-08 04:53:00,62.0,62.0,-100.00,South,189,0.0,0.0,99,0.00,,,0.00,0.000000,,2013-07-08 08:53:00,
2013-07-08 05:02:00,62.0,62.0,-100.00,South,189,0.0,0.0,99,0.00,,,0.00,0.000000,,2013-07-08 09:02:00,
2013-07-08 05:34:00,63.0,63.0,-100.00,SW,234,0.0,2.0,99,0.01,,,0.01,0.000000,,2013-07-08 09:34:00,
2013-07-08 05:43:00,63.0,63.0,-100.00,SW,234,0.0,2.0,99,0.01,,,0.01,0.000000,,2013-07-08 09:43:00,
2013-07-08 05:53:00,63.0,63.0,-100.00,SW,234,0.0,2.0,99,0.01,,,0.01,0.000000,,2013-07-08 09:53:00,
2013-07-08 06:02:00,63.0,63.0,-100.00,SW,234,0.0,2.0,99,0.01,,,0.01,0.000000,,2013-07-08 10:02:00,
2013-07-08 06:34:00,63.0,63.0,-100.00,SSE,159,1.0,5.0,99,0.00,,,0.01,2.000000,,2013-07-08 10:34:00,
2013-07-08 06:43:00,63.0,63.0,-100.00,SSE,159,1.0,5.0,99,0.00,,,0.01,2.000000,,2013-07-08 10:43:00,
2013-07-08 06:53:00,63.0,63.0,-100.00,SSE,159,1.0,5.0,99,0.00,,,0.01,2.000000,,2013-07-08 10:53:00,
2013-07-08 07:02:00,63.0,63.0,-100.00,SSE,159,1.0,5.0,99,0.00,,,0.01,2.000000,,2013-07-08 11:02:00,
2013-07-08 07:33:00,64.0,64.0,-100.00,WSW,253,2.0,5.0,99,0.00,,,0.01,27.000000,,2013-07-08 11:33:00,
2013-07-08 07:43:00,64.0,64.0,-100.00,WSW,253,2.0,5.0,99,0.00,,,0.01,27.000000,,2013-07-08 11:43:00,
2013-07-08 07:53:00,64.0,64.0,-100.00,WSW,253,2.0,5.0,99,0.00,,,0.01,27.000000,,2013-07-08 11:53:00,
2013-07-08 08:02:00,64.0,64.0,-100.00,WSW,253,2.0,5.0,99,0.00,,,0.01,27.000000,,2013-07-08 12:02:00,
2013-07-08 08:43:00,66.0,65.0,-100.00,SSW,207,1.0,4.0,95,0.00,,,0.01,94.000000,,2013-07-08 12:43:00,
2013-07-08 08:53:00,66.0,65.0,-100.00,SSW,207,1.0,4.0,95,0.00,,,0.01,94.000000,,2013-07-08 12:53:00,
2013-07-08 09:02:00,66.0,65.0,-100.00,SSW,207,1.0,4.0,95,0.00,,,0.01,94.000000,,2013-07-08 13:02:00,
2013-07-08 09:43:00,67.0,64.0,-100.00,West,263,3.0,6.0,91,0.00,,,0.01,160.000000,,2013-07-08 13:43:00,
2013-07-08 09:53:00,67.0,64.0,-100.00,West,263,3.0,6.0,91,0.00,,,0.01,160.000000,,2013-07-08 13:53:00,
2013-07-08 10:02:00,67.0,64.0,-100.00,West,263,3.0,6.0,91,0.00,,,0.01,160.000000,,2013-07-08 14:02:00,
2013-07-08 10:34:00,67.0,65.0,-100.00,SSW,202,2.0,5.0,94,0.19,,,0.20,201.000000,,2013-07-08 14:34:00,
2013-07-08 10:43:00,67.0,65.0,-100.00,SSW,202,2.0,5.0,94,0.19,,,0.20,201.000000,,2013-07-08 14:43:00,
2013-07-08 10:53:00,67.0,65.0,-100.00,SSW,202,2.0,5.0,94,0.19,,,0.20,201.000000,,2013-07-08 14:53:00,
2013-07-08 11:02:00,67.0,65.0,-100.00,SSW,202,2.0,5.0,94,0.19,,,0.20,201.000000,,2013-07-08 15:02:00,
2013-07-08 11:43:00,70.0,66.0,-100.00,SW,230,3.0,5.0,88,0.00,,,0.20,346.000000,,2013-07-08 15:43:00,
2013-07-08 11:53:00,70.0,66.0,-100.00,SW,230,3.0,5.0,88,0.00,,,0.20,346.000000,,2013-07-08 15:53:00,
2013-07-08 12:02:00,70.0,66.0,-100.00,SW,230,3.0,5.0,88,0.00,,,0.20,346.000000,,2013-07-08 16:02:00,
2013-07-08 12:07:00,73.0,67.0,-100.00,SSW,210,4.0,7.0,81,0.00,,,0.20,360.000000,,2013-07-08 16:07:00,
2013-07-08 12:34:00,73.0,67.0,-100.00,SSW,210,4.0,7.0,81,0.00,,,0.20,360.000000,,2013-07-08 16:34:00,
2013-07-08 12:43:00,73.0,67.0,-100.00,SSW,210,4.0,7.0,81,0.00,,,0.20,360.000000,,2013-07-08 16:43:00,
2013-07-08 12:58:00,73.0,67.0,-100.00,SSW,210,4.0,7.0,81,0.00,,,0.20,360.000000,,2013-07-08 16:58:00,
2013-07-08 13:07:00,76.0,67.0,-100.00,West,270,3.0,7.0,74,0.00,,,0.20,648.000000,,2013-07-08 17:07:00,
2013-07-08 13:48:00,76.0,67.0,-100.00,West,270,3.0,7.0,74,0.00,,,0.20,648.000000,,2013-07-08 17:48:00,
2013-07-08 13:56:00,76.0,67.0,-100.00,West,270,3.0,7.0,74,0.00,,,0.20,648.000000,,2013-07-08 17:56:00,
2013-07-08 14:07:00,81.0,67.0,-100.00,West,269,4.0,6.0,62,0.00,,,0.20,1060.000000,,2013-07-08 18:07:00,
2013-07-08 14:46:00,81.0,67.0,-100.00,West,269,4.0,6.0,62,0.00,,,0.20,1060.000000,,2013-07-08 18:46:00,
2013-07-08 14:56:00,81.0,67.0,-100.00,West,269,4.0,6.0,62,0.00,,,0.20,1060.000000,,2013-07-08 18:56:00,
2013-07-08 15:02:00,81.0,67.0,-100.00,West,269,4.0,6.0,62,0.00,,,0.20,1060.000000,,2013-07-08 19:02:00,
2013-07-08 15:07:00,81.0,65.0,-100.00,West,263,4.0,6.0,59,0.00,,,0.20,1089.000000,,2013-07-08 19:07:00,
2013-07-08 15:58:00,81.0,65.0,-100.00,West,263,4.0,6.0,59,0.00,,,0.20,1089.000000,,2013-07-08 19:58:00,
2013-07-08 16:07:00,80.0,65.0,-100.00,SW,233,3.0,4.0,61,0.00,,,0.20,752.000000,,2013-07-08 20:07:00,
2013-07-08 16:49:00,80.0,65.0,-100.00,SW,233,3.0,4.0,61,0.00,,,0.20,752.000000,,2013-07-08 20:49:00,
2013-07-08 16:57:00,80.0,65.0,-100.00,SW,233,3.0,4.0,61,0.00,,,0.20,752.000000,,2013-07-08 20:57:00,
2013-07-08 17:07:00,82.0,68.0,-100.00,West,279,4.0,7.0,62,0.00,,,0.20,713.000000,,2013-07-08 21:07:00,
2013-07-08 17:58:00,82.0,68.0,-100.00,West,279,4.0,7.0,62,0.00,,,0.20,713.000000,,2013-07-08 21:58:00,
2013-07-08 18:07:00,80.0,69.0,-100.00,West,274,3.0,6.0,69,0.00,,,0.20,371.000000,,2013-07-08 22:07:00,
2013-07-08 18:50:00,80.0,69.0,-100.00,West,274,3.0,6.0,69,0.00,,,0.20,371.000000,,2013-07-08 22:50:00,
2013-07-08 19:01:00,80.0,69.0,-100.00,West,274,3.0,6.0,69,0.00,,,0.20,371.000000,,2013-07-08 23:01:00,
2013-07-08 19:07:00,77.0,68.0,-100.00,NW,307,1.0,2.0,74,0.00,,,0.20,294.000000,,2013-07-08 23:07:00,
2013-07-08 20:07:00,72.0,68.0,-100.00,NW,323,0.0,2.0,87,0.00,,,0.20,79.000000,,2013-07-09 00:07:00,
2013-07-08 20:46:00,72.0,68.0,-100.00,NW,323,0.0,2.0,87,0.00,,,0.20,79.000000,,2013-07-09 00:46:00,
2013-07-08 21:00:00,72.0,68.0,-100.00,NW,323,0.0,2.0,87,0.00,,,0.20,79.000000,,2013-07-09 01:00:00,
2013-07-08 21:07:00,68.0,67.0,-100.00,East,79,0.0,0.0,95,0.00,,,0.20,18.000000,,2013-07-09 01:07:00,